Time;durP1;ratioP1;P1;durP2;ratioP2;P2;SDS_P1;SDS_P2;PMS_P1;PMS_P2;Temp;Humidity;BMP_temperature;BMP_pressure;BME280_temperature;BME280_humidity;BME280_pressure;Samples;Min_cycle;Max_cycle;Signal;HPM_P1;HPM_P2
2023/05/11 00:02:23;;;;;;;;;;;;;;;;;;4951381;28;90083;-67
2023/05/11 00:04:48;;;;;;;;;;;;;;;;;;4951858;28;89592;-64
2023/05/11 00:07:13;;;;;;;;;;;;;;;;;;4951214;28;89437;-65
2023/05/11 00:09:40;;;;;;;;;;;;;;;;;;4953701;28;89076;-64
2023/05/11 00:12:06;;;;;;;;;;;;;;;;;;4950888;28;90556;-63
2023/05/11 00:14:31;;;;;;;;;;;;;;;;;;4952787;28;90204;-66
2023/05/11 00:16:57;;;;;;;;;;;;;;;;;;4954155;28;89642;-66
2023/05/11 00:19:22;;;;;;;;;;;;;;;;;;4952218;28;89529;-66
2023/05/11 00:21:47;;;;;;;;;;;;;;;;;;4951348;28;90037;-64
2023/05/11 00:24:12;;;;;;;;;;;;;;;;;;4952055;28;89561;-66
2023/05/11 00:26:37;;;;;;;;;;;;;;;;;;4951955;28;89174;-65
2023/05/11 00:29:03;;;;;;;;;;;;;;;;;;4951318;28;89131;-65
2023/05/11 00:31:28;;;;;;;;;;;;;;;;;;4952005;28;89702;-67
2023/05/11 00:33:53;;;;;;;;;;;;;;;;;;4951651;28;89156;-65
2023/05/11 00:36:19;;;;;;;;;;;;;;;;;;4959299;28;89711;-67
2023/05/11 00:38:44;;;;;;;;;;;;;;;;;;4955331;28;91190;-68
2023/05/11 00:41:09;;;;;;;;;;;;;;;;;;4950022;28;89049;-67
2023/05/11 00:43:34;;;;;;;;;;;;;;;;;;4952141;28;89582;-67
2023/05/11 00:46:01;;;;;;;;;;;;;;;;;;4950885;28;90304;-67
2023/05/11 00:48:26;;;;;;;;;;;;;;;;;;4952226;28;89084;-68
2023/05/11 00:50:52;;;;;;;;;;;;;;;;;;4952160;28;89407;-66
2023/05/11 00:53:17;;;;;;;;;;;;;;;;;;4951389;28;90415;-66
2023/05/11 00:55:43;;;;;;;;;;;;;;;;;;4952906;28;90416;-67
2023/05/11 00:58:08;;;;;;;;;;;;;;;;;;4950018;28;89833;-66
2023/05/11 01:00:33;;;;;;;;;;;;;;;;;;4954176;28;89258;-65
2023/05/11 01:02:59;;;;;;;;;;;;;;;;;;4949090;28;90948;-67
2023/05/11 01:05:29;;;;;;;;;;;;;;;;;;4951212;28;89623;-66
2023/05/11 01:08:03;;;;;;;;;;;;;;;;;;4950924;28;89608;-67
2023/05/11 01:10:34;;;;;;;;;;;;;;;;;;4951477;28;89518;-67
2023/05/11 01:13:02;;;;;;;;;;;;;;;;;;4948423;28;89305;-66
2023/05/11 01:15:35;;;;;;;;;;;;;;;;;;4947591;28;89543;-66
2023/05/11 01:18:13;;;;;;;;;;;;;;;;;;4942697;28;90730;-64
2023/05/11 01:20:41;;;;;;;;;;;;;;;;;;4946705;28;91963;-68
2023/05/11 01:23:06;;;;;;;;;;;;;;;;;;4949303;28;89631;-66
2023/05/11 01:25:47;;;;;;;;;;;;;;;;;;4948121;28;89173;-68
2023/05/11 01:28:19;;;;;;;;;;;;;;;;;;4948733;28;90944;-66
2023/05/11 01:30:50;;;;;;;;;;;;;;;;;;4948038;28;90788;-67
2023/05/11 01:33:20;;;;;;;;;;;;;;;;;;4948972;28;89245;-66
2023/05/11 01:35:48;;;;;;;;;;;;;;;;;;4949010;28;89763;-68
2023/05/11 01:38:15;;;;;;;;;;;;;;;;;;4940711;28;92395;-66
2023/05/11 01:40:41;;;;;;;;;;;;;;;;;;4960094;28;89839;-67
2023/05/11 01:43:08;;;;;;;;;;;;;;;;;;4950633;28;91279;-66
2023/05/11 01:45:35;;;;;;;;;;;;;;;;;;4949017;28;89664;-64
2023/05/11 01:48:05;;;;;;;;;;;;;;;;;;4950607;28;89127;-65
2023/05/11 01:50:31;;;;;;;;;;;;;;;;;;4948267;28;89500;-64
2023/05/11 01:52:57;;;;;;;;;;;;;;;;;;4944651;28;90420;-67
2023/05/11 01:55:22;;;;;;;;;;;;;;;;;;4948766;28;89053;-66
2023/05/11 01:57:50;;;;;;;;;;;;;;;;;;4948552;28;89675;-67
2023/05/11 02:00:16;;;;;;;;;;;;;;;;;;4943290;28;90160;-66
2023/05/11 02:02:44;;;;;;;;;;;;;;;;;;4962299;28;89554;-67
2023/05/11 02:05:10;;;;;;;;;;;;;;;;;;4951010;28;89509;-65
2023/05/11 02:07:36;;;;;;;;;;;;;;;;;;4947599;28;89799;-65
2023/05/11 02:10:01;;;;;;;;;;;;;;;;;;4949558;28;90642;-65
2023/05/11 02:12:27;;;;;;;;;;;;;;;;;;4949556;28;89428;-67
2023/05/11 02:14:52;;;;;;;;;;;;;;;;;;4948125;28;89593;-65
2023/05/11 02:17:20;;;;;;;;;;;;;;;;;;4946761;28;89346;-65
2023/05/11 02:19:46;;;;;;;;;;;;;;;;;;4949471;28;90214;-65
2023/05/11 02:22:11;;;;;;;;;;;;;;;;;;4948953;28;90157;-64
2023/05/11 02:24:37;;;;;;;;;;;;;;;;;;4948888;28;90695;-65
2023/05/11 02:27:03;;;;;;;;;;;;;;;;;;4952573;28;89210;-66
2023/05/11 02:29:28;;;;;;;;;;;;;;;;;;4952166;28;89758;-67
2023/05/11 02:32:02;;;;;;;;;;;;;;;;;;4951250;28;90212;-64
2023/05/11 02:34:28;;;;;;;;;;;;;;;;;;4948789;28;88929;-66
2023/05/11 02:36:57;;;;;;;;;;;;;;;;;;4950234;28;91132;-68
2023/05/11 02:39:25;;;;;;;;;;;;;;;;;;4948146;28;89533;-67
2023/05/11 02:41:55;;;;;;;;;;;;;;;;;;4947214;28;89724;-65
2023/05/11 02:44:21;;;;;;;;;;;;;;;;;;4949105;28;90671;-66
2023/05/11 02:46:47;;;;;;;;;;;;;;;;;;4949700;28;90250;-67
2023/05/11 02:49:14;;;;;;;;;;;;;;;;;;4953169;28;89130;-64
2023/05/11 02:51:41;;;;;;;;;;;;;;;;;;4964892;28;89997;-68
2023/05/11 02:54:09;;;;;;;;;;;;;;;;;;4948303;28;89683;-67
2023/05/11 02:56:35;;;;;;;;;;;;;;;;;;4950685;28;90750;-65
2023/05/11 02:59:01;;;;;;;;;;;;;;;;;;4948637;28;89551;-69
2023/05/11 03:01:27;;;;;;;;;;;;;;;;;;4946725;28;89785;-67
2023/05/11 03:03:52;;;;;;;;;;;;;;;;;;4948715;28;89653;-65
2023/05/11 03:06:18;;;;;;;;;;;;;;;;;;4948018;28;89967;-64
2023/05/11 03:08:43;;;;;;;;;;;;;;;;;;4948832;28;89765;-64
2023/05/11 03:11:09;;;;;;;;;;;;;;;;;;4951027;28;90425;-64
2023/05/11 03:13:36;;;;;;;;;;;;;;;;;;4949204;28;90066;-66
2023/05/11 03:16:01;;;;;;;;;;;;;;;;;;4948916;28;90458;-65
2023/05/11 03:18:27;;;;;;;;;;;;;;;;;;4950506;28;90235;-67
2023/05/11 03:20:53;;;;;;;;;;;;;;;;;;4949909;28;89473;-64
2023/05/11 03:23:18;;;;;;;;;;;;;;;;;;4949233;28;90356;-66
2023/05/11 03:25:44;;;;;;;;;;;;;;;;;;4948855;28;89430;-66
2023/05/11 03:28:10;;;;;;;;;;;;;;;;;;4949014;28;89376;-66
2023/05/11 03:30:36;;;;;;;;;;;;;;;;;;4949059;28;90341;-65
2023/05/11 03:33:02;;;;;;;;;;;;;;;;;;4948827;28;89289;-66
2023/05/11 03:35:30;;;;;;;;;;;;;;;;;;4949684;28;89647;-68
2023/05/11 03:37:56;;;;;;;;;;;;;;;;;;4948008;28;91142;-66
2023/05/11 03:40:22;;;;;;;;;;;;;;;;;;4946853;28;89390;-66
2023/05/11 03:42:48;;;;;;;;;;;;;;;;;;4949529;28;89365;-67
2023/05/11 03:45:16;;;;;;;;;;;;;;;;;;4949454;28;89599;-64
2023/05/11 03:47:42;;;;;;;;;;;;;;;;;;4948339;28;90983;-65
2023/05/11 03:50:08;;;;;;;;;;;;;;;;;;4962832;28;92856;-66
2023/05/11 03:52:34;;;;;;;;;;;;;;;;;;4950535;28;91254;-63
2023/05/11 03:54:59;;;;;;;;;;;;;;;;;;4947577;28;91995;-66
2023/05/11 03:57:25;;;;;;;;;;;;;;;;;;4948142;28;89499;-65
2023/05/11 03:59:50;;;;;;;;;;;;;;;;;;4949834;28;89597;-66
2023/05/11 04:02:15;;;;;;;;;;;;;;;;;;4946773;28;90011;-64
2023/05/11 04:04:41;;;;;;;;;;;;;;;;;;4949404;28;89793;-68
2023/05/11 04:07:06;;;;;;;;;;;;;;;;;;4948173;28;90001;-64
2023/05/11 04:09:31;;;;;;;;;;;;;;;;;;4949891;28;89562;-65
2023/05/11 04:11:57;;;;;;;;;;;;;;;;;;4948871;28;89228;-64
2023/05/11 04:14:22;;;;;;;;;;;;;;;;;;4953024;28;89493;-66
2023/05/11 04:16:47;;;;;;;;;;;;;;;;;;4950656;28;89570;-64
2023/05/11 04:19:13;;;;;;;;;;;;;;;;;;4949255;28;89602;-67
2023/05/11 04:21:38;;;;;;;;;;;;;;;;;;4948189;28;89525;-65
2023/05/11 04:24:03;;;;;;;;;;;;;;;;;;4946589;28;89772;-65
2023/05/11 04:26:28;;;;;;;;;;;;;;;;;;4948516;28;89218;-63
2023/05/11 04:28:54;;;;;;;;;;;;;;;;;;4948600;28;89360;-65
2023/05/11 04:31:19;;;;;;;;;;;;;;;;;;4947693;28;89431;-64
2023/05/11 04:33:44;;;;;;;;;;;;;;;;;;4947213;28;89391;-64
2023/05/11 04:36:09;;;;;;;;;;;;;;;;;;4951596;28;89270;-65
2023/05/11 04:38:35;;;;;;;;;;;;;;;;;;4949074;28;90953;-67
2023/05/11 04:41:03;;;;;;;;;;;;;;;;;;4949476;28;91206;-68
2023/05/11 04:43:29;;;;;;;;;;;;;;;;;;4947546;28;89284;-67
2023/05/11 04:45:54;;;;;;;;;;;;;;;;;;4948487;28;89806;-66
2023/05/11 04:48:19;;;;;;;;;;;;;;;;;;4948090;28;89412;-67
2023/05/11 04:50:44;;;;;;;;;;;;;;;;;;4948999;28;89243;-68
2023/05/11 04:53:10;;;;;;;;;;;;;;;;;;4947197;28;89039;-67
2023/05/11 04:55:35;;;;;;;;;;;;;;;;;;4948893;28;89362;-67
2023/05/11 04:58:00;;;;;;;;;;;;;;;;;;4950938;28;91043;-67
2023/05/11 05:00:25;;;;;;;;;;;;;;;;;;4947904;28;91526;-67
2023/05/11 05:02:50;;;;;;;;;;;;;;;;;;4947147;28;90581;-66
2023/05/11 05:05:16;;;;;;;;;;;;;;;;;;4947505;28;90593;-65
2023/05/11 05:07:41;;;;;;;;;;;;;;;;;;4947871;28;89551;-65
2023/05/11 05:10:08;;;;;;;;;;;;;;;;;;4947105;28;89191;-68
2023/05/11 05:12:36;;;;;;;;;;;;;;;;;;4946988;28;90050;-65
2023/05/11 05:15:01;;;;;;;;;;;;;;;;;;4947080;28;89888;-68
2023/05/11 05:17:26;;;;;;;;;;;;;;;;;;4947323;28;89564;-66
2023/05/11 05:19:52;;;;;;;;;;;;;;;;;;4949012;28;89668;-64
2023/05/11 05:22:17;;;;;;;;;;;;;;;;;;4947597;28;89705;-67
2023/05/11 05:24:42;;;;;;;;;;;;;;;;;;4944502;28;89541;-65
2023/05/11 05:27:07;;;;;;;;;;;;;;;;;;4947455;28;90803;-63
2023/05/11 05:29:32;;;;;;;;;;;;;;;;;;4947571;28;89171;-66
2023/05/11 05:31:58;;;;;;;;;;;;;;;;;;4947644;28;89570;-67
2023/05/11 05:34:24;;;;;;;;;;;;;;;;;;4947212;28;89509;-66
2023/05/11 05:36:49;;;;;;;;;;;;;;;;;;4947354;28;89630;-64
2023/05/11 05:39:15;;;;;;;;;;;;;;;;;;4946794;28;89363;-67
2023/05/11 05:41:41;;;;;;;;;;;;;;;;;;4950344;28;89199;-67
2023/05/11 05:44:06;;;;;;;;;;;;;;;;;;4946425;28;89306;-68
2023/05/11 05:46:31;;;;;;;;;;;;;;;;;;4943676;28;90247;-69
2023/05/11 05:48:57;;;;;;;;;;;;;;;;;;4944071;28;89689;-64
2023/05/11 05:51:22;;;;;;;;;;;;;;;;;;4946517;28;90582;-65
2023/05/11 05:53:47;;;;;;;;;;;;;;;;;;4945807;28;90562;-65
2023/05/11 05:56:12;;;;;;;;;;;;;;;;;;4945954;28;89264;-66
2023/05/11 05:58:37;;;;;;;;;;;;;;;;;;4947444;28;89012;-69
2023/05/11 06:01:03;;;;;;;;;;;;;;;;;;4949107;28;89763;-68
2023/05/11 06:03:28;;;;;;;;;;;;;;;;;;4944278;28;89362;-68
2023/05/11 06:05:53;;;;;;;;;;;;;;;;;;4947614;28;90605;-65
2023/05/11 06:08:18;;;;;;;;;;;;;;;;;;4962617;28;90126;-65
2023/05/11 06:10:43;;;;;;;;;;;;;;;;;;4947058;28;89614;-64
2023/05/11 06:13:09;;;;;;;;;;;;;;;;;;4946887;28;89938;-68
2023/05/11 06:15:34;;;;;;;;;;;;;;;;;;4947609;28;89739;-71
2023/05/11 06:17:59;;;;;;;;;;;;;;;;;;4945126;28;90218;-69
2023/05/11 06:20:25;;;;;;;;;;;;;;;;;;4947633;28;89704;-68
2023/05/11 06:22:50;;;;;;;;;;;;;;;;;;4964692;28;90902;-67
2023/05/11 06:25:15;;;;;;;;;;;;;;;;;;4946501;28;89523;-71
2023/05/11 06:27:41;;;;;;;;;;;;;;;;;;4943897;28;90564;-67
2023/05/11 06:30:06;;;;;;;;;;;;;;;;;;4946578;28;89917;-68
2023/05/11 06:32:32;;;;;;;;;;;;;;;;;;4946025;28;91139;-67
2023/05/11 06:34:57;;;;;;;;;;;;;;;;;;4945252;28;89725;-66
2023/05/11 06:37:23;;;;;;;;;;;;;;;;;;4944119;28;89451;-67
2023/05/11 06:39:48;;;;;;;;;;;;;;;;;;4945855;28;89512;-65
2023/05/11 06:42:13;;;;;;;;;;;;;;;;;;4945767;28;90620;-64
2023/05/11 06:44:40;;;;;;;;;;;;;;;;;;4963280;28;89670;-65
2023/05/11 06:47:06;;;;;;;;;;;;;;;;;;4946667;28;92892;-66
2023/05/11 06:49:31;;;;;;;;;;;;;;;;;;4946255;28;90093;-66
2023/05/11 06:51:56;;;;;;;;;;;;;;;;;;4946022;28;90035;-65
2023/05/11 06:54:22;;;;;;;;;;;;;;;;;;4942124;28;90598;-68
2023/05/11 06:56:47;;;;;;;;;;;;;;;;;;4950000;28;89260;-66
2023/05/11 06:59:12;;;;;;;;;;;;;;;;;;4946609;28;91144;-71
2023/05/11 07:01:38;;;;;;;;;;;;;;;;;;4943034;28;92063;-72
2023/05/11 07:04:03;;;;;;;;;;;;;;;;;;4946557;28;89491;-72
2023/05/11 07:06:28;;;;;;;;;;;;;;;;;;4949921;28;90871;-67
2023/05/11 07:08:54;;;;;;;;;;;;;;;;;;4945567;28;89510;-67
2023/05/11 07:11:19;;;;;;;;;;;;;;;;;;4945857;28;91039;-65
2023/05/11 07:13:44;;;;;;;;;;;;;;;;;;4945205;28;90086;-68
2023/05/11 07:16:09;;;;;;;;;;;;;;;;;;4948046;28;89499;-71
2023/05/11 07:18:35;;;;;;;;;;;;;;;;;;4948068;28;89625;-72
2023/05/11 07:21:00;;;;;;;;;;;;;;;;;;4947135;28;90380;-69
2023/05/11 07:23:25;;;;;;;;;;;;;;;;;;4946990;28;89629;-67
2023/05/11 07:25:52;;;;;;;;;;;;;;;;;;4948756;28;89793;-68
2023/05/11 07:28:17;;;;;;;;;;;;;;;;;;4951937;28;90225;-69
2023/05/11 07:30:42;;;;;;;;;;;;;;;;;;4948333;28;89402;-68
2023/05/11 07:33:08;;;;;;;;;;;;;;;;;;4948382;28;89777;-67
2023/05/11 07:35:33;;;;;;;;;;;;;;;;;;4949086;28;89450;-67
2023/05/11 07:37:58;;;;;;;;;;;;;;;;;;4949848;28;90479;-69
2023/05/11 07:40:23;;;;;;;;;;;;;;;;;;4947422;28;89719;-67
2023/05/11 07:42:49;;;;;;;;;;;;;;;;;;4948467;28;89562;-66
2023/05/11 07:45:14;;;;;;;;;;;;;;;;;;4948410;28;89450;-66
2023/05/11 07:47:39;;;;;;;;;;;;;;;;;;4952639;28;90546;-66
2023/05/11 07:50:05;;;;;;;;;;;;;;;;;;4946591;28;89507;-65
2023/05/11 07:52:30;;;;;;;;;;;;;;;;;;4949857;28;89352;-67
2023/05/11 07:54:55;;;;;;;;;;;;;;;;;;4949501;28;89641;-68
2023/05/11 07:57:20;;;;;;;;;;;;;;;;;;4948812;28;89852;-68
2023/05/11 07:59:46;;;;;;;;;;;;;;;;;;4946966;28;90006;-65
2023/05/11 08:02:11;;;;;;;;;;;;;;;;;;4948454;28;90427;-66
2023/05/11 08:04:36;;;;;;;;;;;;;;;;;;4947667;28;90456;-70
2023/05/11 08:07:02;;;;;;;;;;;;;;;;;;4948300;28;90577;-71
2023/05/11 08:09:28;;;;;;;;;;;;;;;;;;4951462;28;89483;-67
2023/05/11 08:11:55;;;;;;;;;;;;;;;;;;4962350;28;91306;-67
2023/05/11 08:14:20;;;;;;;;;;;;;;;;;;4949385;28;89526;-66
2023/05/11 08:16:45;;;;;;;;;;;;;;;;;;4948876;28;90121;-66
2023/05/11 08:19:11;;;;;;;;;;;;;;;;;;4947270;28;89196;-69
2023/05/11 08:21:37;;;;;;;;;;;;;;;;;;4949189;28;89634;-71
2023/05/11 08:24:02;;;;;;;;;;;;;;;;;;4947725;28;90938;-65
2023/05/11 08:26:27;;;;;;;;;;;;;;;;;;4949556;28;90085;-64
2023/05/11 08:28:53;;;;;;;;;;;;;;;;;;4947188;28;89057;-67
2023/05/11 08:31:18;;;;;;;;;;;;;;;;;;4950000;28;89116;-65
2023/05/11 08:33:43;;;;;;;;;;;;;;;;;;4945980;28;89819;-66
2023/05/11 08:36:10;;;;;;;;;;;;;;;;;;4947265;28;89789;-70
2023/05/11 08:38:35;;;;;;;;;;;;;;;;;;4944833;28;90613;-68
2023/05/11 08:41:00;;;;;;;;;;;;;;;;;;4948243;28;90203;-66
2023/05/11 08:43:28;;;;;;;;;;;;;;;;;;4948811;28;89624;-65
2023/05/11 08:45:55;;;;;;;;;;;;;;;;;;4948816;28;89489;-69
2023/05/11 08:48:21;;;;;;;;;;;;;;;;;;4946140;28;89551;-72
2023/05/11 08:50:47;;;;;;;;;;;;;;;;;;4946776;28;89309;-66
2023/05/11 08:53:12;;;;;;;;;;;;;;;;;;4950763;28;90043;-70
2023/05/11 08:55:39;;;;;;;;;;;;;;;;;;4949363;28;89775;-67
2023/05/11 08:58:05;;;;;;;;;;;;;;;;;;4947586;28;90272;-71
2023/05/11 09:00:31;;;;;;;;;;;;;;;;;;4947689;28;89670;-66
2023/05/11 09:02:57;;;;;;;;;;;;;;;;;;4944823;28;89769;-71
2023/05/11 09:05:23;;;;;;;;;;;;;;;;;;4962681;28;89812;-69
2023/05/11 09:07:51;;;;;;;;;;;;;;;;;;4947135;28;90640;-70
2023/05/11 09:10:17;;;;;;;;;;;;;;;;;;4947476;28;89406;-71
2023/05/11 09:12:42;;;;;;;;;;;;;;;;;;4947312;28;89305;-68
2023/05/11 09:15:07;;;;;;;;;;;;;;;;;;4950908;28;89018;-70
2023/05/11 09:17:32;;;;;;;;;;;;;;;;;;4948904;28;89860;-66
2023/05/11 09:19:59;;;;;;;;;;;;;;;;;;4947439;28;89562;-69
2023/05/11 09:22:24;;;;;;;;;;;;;;;;;;4946730;28;91332;-69
2023/05/11 09:24:49;;;;;;;;;;;;;;;;;;4947594;28;89825;-71
2023/05/11 09:27:15;;;;;;;;;;;;;;;;;;4943140;28;90645;-66
2023/05/11 09:29:40;;;;;;;;;;;;;;;;;;4946940;28;89546;-71
2023/05/11 09:32:05;;;;;;;;;;;;;;;;;;4946853;28;89447;-69
2023/05/11 09:34:30;;;;;;;;;;;;;;;;;;4948522;28;90057;-71
2023/05/11 09:36:56;;;;;;;;;;;;;;;;;;4949940;28;89580;-67
2023/05/11 09:39:34;;;;;;;;;;;;;;;;;;4945879;28;90928;-71
2023/05/11 09:42:16;;;;;;;;;;;;;;;;;;4945146;28;89422;-66
2023/05/11 09:44:41;;;;;;;;;;;;;;;;;;4944952;28;90310;-68
2023/05/11 09:47:14;;;;;;;;;;;;;;;;;;4946255;28;89488;-70
2023/05/11 09:49:42;;;;;;;;;;;;;;;;;;4945551;28;90712;-71
2023/05/11 09:52:08;;;;;;;;;;;;;;;;;;4945905;28;91981;-70
2023/05/11 09:54:38;;;;;;;;;;;;;;;;;;4948091;28;89284;-68
2023/05/11 09:57:04;;;;;;;;;;;;;;;;;;4945291;28;89539;-73
2023/05/11 09:59:40;;;;;;;;;;;;;;;;;;4946316;28;89026;-69
2023/05/11 10:02:19;;;;;;;;;;;;;;;;;;4943750;28;92492;-66
2023/05/11 10:04:45;;;;;;;;;;;;;;;;;;4948037;28;90373;-70
2023/05/11 10:07:10;;;;;;;;;;;;;;;;;;4946621;28;90073;-70
2023/05/11 10:09:37;;;;;;;;;;;;;;;;;;4963018;28;90688;-73
2023/05/11 10:12:04;;;;;;;;;;;;;;;;;;4946749;28;90289;-65
2023/05/11 10:14:30;;;;;;;;;;;;;;;;;;4945423;28;90853;-72
2023/05/11 10:16:57;;;;;;;;;;;;;;;;;;4946016;28;89517;-72
2023/05/11 10:19:22;;;;;;;;;;;;;;;;;;4947647;28;92223;-72
2023/05/11 10:21:48;;;;;;;;;;;;;;;;;;4963222;28;92312;-68
2023/05/11 10:24:13;;;;;;;;;;;;;;;;;;4944755;28;89576;-68
2023/05/11 10:26:39;;;;;;;;;;;;;;;;;;4945372;28;89191;-68
2023/05/11 10:29:04;;;;;;;;;;;;;;;;;;4947025;28;91355;-75
2023/05/11 10:31:30;;;;;;;;;;;;;;;;;;4945944;28;89380;-71
2023/05/11 10:33:56;;;;;;;;;;;;;;;;;;4945220;28;89822;-64
2023/05/11 10:36:22;;;;;;;;;;;;;;;;;;4946554;28;90547;-67
2023/05/11 10:38:47;;;;;;;;;;;;;;;;;;4945326;28;89623;-68
2023/05/11 10:41:23;;;;;;;;;;;;;;;;;;4946859;28;89814;-65
2023/05/11 10:44:02;;;;;;;;;;;;;;;;;;4946421;28;89235;-72
2023/05/11 10:46:36;;;;;;;;;;;;;;;;;;4945805;28;89059;-66
2023/05/11 10:49:13;;;;;;;;;;;;;;;;;;4949186;28;90187;-69
2023/05/11 10:51:53;;;;;;;;;;;;;;;;;;4950314;28;89393;-65
2023/05/11 10:54:28;;;;;;;;;;;;;;;;;;4945824;28;91079;-67
2023/05/11 10:56:56;;;;;;;;;;;;;;;;;;4949096;28;90140;-67
2023/05/11 10:59:36;;;;;;;;;;;;;;;;;;4945605;28;89925;-68
2023/05/11 11:02:02;;;;;;;;;;;;;;;;;;4961191;28;91472;-70
2023/05/11 11:04:40;;;;;;;;;;;;;;;;;;4952390;28;90792;-65
2023/05/11 11:07:06;;;;;;;;;;;;;;;;;;4950511;28;89123;-68
2023/05/11 11:09:51;;;;;;;;;;;;;;;;;;4948835;28;90741;-66
2023/05/11 11:12:17;;;;;;;;;;;;;;;;;;4949140;28;89629;-67
2023/05/11 11:15:03;;;;;;;;;;;;;;;;;;4949332;28;89713;-68
2023/05/11 11:17:30;;;;;;;;;;;;;;;;;;4957863;28;92022;-69
2023/05/11 11:19:56;;;;;;;;;;;;;;;;;;4948093;28;89268;-67
2023/05/11 11:22:34;;;;;;;;;;;;;;;;;;4948514;28;90505;-72
2023/05/11 11:24:59;;;;;;;;;;;;;;;;;;4946164;28;90638;-63
2023/05/11 11:27:40;;;;;;;;;;;;;;;;;;4951362;28;89283;-68
2023/05/11 11:30:22;;;;;;;;;;;;;;;;;;4946639;28;91282;-63
2023/05/11 11:32:48;;;;;;;;;;;;;;;;;;4947716;28;89826;-66
2023/05/11 11:35:32;;;;;;;;;;;;;;;;;;4947771;28;90254;-67
2023/05/11 11:38:01;;;;;;;;;;;;;;;;;;4944564;28;89801;-67
2023/05/11 11:40:36;;;;;;;;;;;;;;;;;;4948673;28;91051;-66
2023/05/11 11:43:18;;;;;;;;;;;;;;;;;;4947690;28;91103;-70
2023/05/11 11:45:51;;;;;;;;;;;;;;;;;;4947255;28;89549;-69
2023/05/11 11:48:20;;;;;;;;;;;;;;;;;;4947912;28;90230;-68
2023/05/11 11:50:47;;;;;;;;;;;;;;;;;;4951934;28;90040;-66
2023/05/11 11:53:32;;;;;;;;;;;;;;;;;;4948229;28;92084;-71
2023/05/11 11:55:57;;;;;;;;;;;;;;;;;;4950320;28;89124;-67
2023/05/11 11:58:40;;;;;;;;;;;;;;;;;;4949029;28;89489;-69
2023/05/11 12:01:06;;;;;;;;;;;;;;;;;;4947922;28;90223;-65
2023/05/11 12:03:34;;;;;;;;;;;;;;;;;;4948973;28;89564;-69
2023/05/11 12:06:00;;;;;;;;;;;;;;;;;;4947322;28;90001;-70
2023/05/11 12:08:27;;;;;;;;;;;;;;;;;;4947016;28;89541;-69
2023/05/11 12:10:53;;;;;;;;;;;;;;;;;;4950181;28;89760;-69
2023/05/11 12:13:19;;;;;;;;;;;;;;;;;;4946662;28;89274;-72
2023/05/11 12:15:44;;;;;;;;;;;;;;;;;;4950039;28;89664;-69
2023/05/11 12:18:20;;;;;;;;;;;;;;;;;;4954255;28;92442;-68
2023/05/11 12:20:45;;;;;;;;;;;;;;;;;;4948501;28;89797;-72
2023/05/11 12:23:11;;;;;;;;;;;;;;;;;;4946318;28;89894;-69
2023/05/11 12:25:36;;;;;;;;;;;;;;;;;;4949524;28;90814;-66
2023/05/11 12:28:01;;;;;;;;;;;;;;;;;;4947795;28;90930;-68
2023/05/11 12:30:31;;;;;;;;;;;;;;;;;;4947583;28;91075;-67
2023/05/11 12:32:58;;;;;;;;;;;;;;;;;;4946830;28;90666;-72
2023/05/11 12:35:24;;;;;;;;;;;;;;;;;;4946074;28;89336;-71
2023/05/11 12:37:50;;;;;;;;;;;;;;;;;;4942774;28;90639;-70
2023/05/11 12:40:16;;;;;;;;;;;;;;;;;;4948703;28;89736;-70
2023/05/11 12:42:51;;;;;;;;;;;;;;;;;;4949486;28;89612;-69
2023/05/11 12:45:16;;;;;;;;;;;;;;;;;;4943035;28;90779;-68
2023/05/11 12:47:42;;;;;;;;;;;;;;;;;;4947585;28;90601;-70
2023/05/11 12:50:08;;;;;;;;;;;;;;;;;;4947446;28;90103;-71
2023/05/11 12:52:33;;;;;;;;;;;;;;;;;;4947041;28;91052;-70
2023/05/11 12:54:59;;;;;;;;;;;;;;;;;;4949314;28;90223;-69
2023/05/11 12:57:25;;;;;;;;;;;;;;;;;;4947542;28;89519;-66
2023/05/11 13:00:12;;;;;;;;;;;;;;;;;;4948532;28;89418;-66
2023/05/11 13:02:51;;;;;;;;;;;;;;;;;;4947009;28;89131;-72
2023/05/11 13:05:20;;;;;;;;;;;;;;;;;;4944411;28;90863;-68
2023/05/11 13:07:47;;;;;;;;;;;;;;;;;;4948640;28;90309;-67
2023/05/11 13:10:13;;;;;;;;;;;;;;;;;;4947679;28;89451;-71
2023/05/11 13:12:50;;;;;;;;;;;;;;;;;;4946821;28;90735;-68
2023/05/11 13:15:16;;;;;;;;;;;;;;;;;;4943451;28;89542;-68
2023/05/11 13:17:42;;;;;;;;;;;;;;;;;;4950105;28;90140;-66
2023/05/11 13:20:14;;;;;;;;;;;;;;;;;;4948380;28;89248;-68
2023/05/11 13:22:39;;;;;;;;;;;;;;;;;;4945514;28;89651;-68
2023/05/11 13:25:05;;;;;;;;;;;;;;;;;;4947017;28;89607;-71
2023/05/11 13:27:30;;;;;;;;;;;;;;;;;;4948220;28;90140;-71
2023/05/11 13:29:55;;;;;;;;;;;;;;;;;;4946972;28;90022;-67
2023/05/11 13:32:20;;;;;;;;;;;;;;;;;;4947573;28;89778;-68
2023/05/11 13:34:46;;;;;;;;;;;;;;;;;;4948392;28;91165;-71
2023/05/11 13:37:11;;;;;;;;;;;;;;;;;;4946663;28;89569;-71
2023/05/11 13:39:36;;;;;;;;;;;;;;;;;;4950865;28;89960;-64
2023/05/11 13:42:01;;;;;;;;;;;;;;;;;;4942114;28;89241;-66
2023/05/11 13:44:26;;;;;;;;;;;;;;;;;;4943232;28;89582;-69
2023/05/11 13:46:52;;;;;;;;;;;;;;;;;;4947158;28;89530;-68
2023/05/11 13:49:17;;;;;;;;;;;;;;;;;;4947654;28;89828;-69
2023/05/11 13:51:42;;;;;;;;;;;;;;;;;;4946018;28;91137;-69
2023/05/11 13:54:07;;;;;;;;;;;;;;;;;;4947894;28;89580;-69
2023/05/11 13:56:33;;;;;;;;;;;;;;;;;;4946734;28;89531;-70
2023/05/11 13:58:58;;;;;;;;;;;;;;;;;;4946019;28;89472;-70
2023/05/11 14:01:23;;;;;;;;;;;;;;;;;;4949349;28;89675;-68
2023/05/11 14:03:52;;;;;;;;;;;;;;;;;;4943857;28;89479;-68
2023/05/11 14:06:19;;;;;;;;;;;;;;;;;;4942856;28;89570;-68
2023/05/11 14:08:45;;;;;;;;;;;;;;;;;;4945666;28;89637;-71
2023/05/11 14:11:10;;;;;;;;;;;;;;;;;;4944987;28;89778;-69
2023/05/11 14:13:35;;;;;;;;;;;;;;;;;;4924641;28;91534;-71
2023/05/11 14:16:01;;;;;;;;;;;;;;;;;;4839819;28;94301;-71
2023/05/11 14:18:26;;;;;;;;;;;;;;;;;;4868649;28;99221;-71
2023/05/11 14:20:52;;;;;;;;;;;;;;;;;;4886711;28;96225;-70
2023/05/11 14:23:17;;;;;;;;;;;;;;;;;;4909610;28;93157;-71
2023/05/11 14:25:42;;;;;;;;;;;;;;;;;;4963995;28;90393;-69
2023/05/11 14:28:07;;;;;;;;;;;;;;;;;;4949934;28;89471;-71
2023/05/11 14:30:33;;;;;;;;;;;;;;;;;;4909378;28;91331;-71
2023/05/11 14:32:58;;;;;;;;;;;;;;;;;;4885054;28;93127;-70
2023/05/11 14:35:23;;;;;;;;;;;;;;;;;;4949227;28;89712;-71
2023/05/11 14:37:48;;;;;;;;;;;;;;;;;;4868191;28;93863;-68
2023/05/11 14:40:14;;;;;;;;;;;;;;;;;;4845758;28;94289;-69
2023/05/11 14:42:39;;;;;;;;;;;;;;;;;;4889383;28;91749;-68
2023/05/11 14:45:05;;;;;;;;;;;;;;;;;;4948021;28;89712;-70
2023/05/11 14:47:30;;;;;;;;;;;;;;;;;;4927596;28;91417;-70
2023/05/11 14:49:55;;;;;;;;;;;;;;;;;;4949372;28;89337;-71
2023/05/11 14:52:21;;;;;;;;;;;;;;;;;;4948925;28;89175;-71
2023/05/11 14:54:46;;;;;;;;;;;;;;;;;;4949686;28;89066;-70
2023/05/11 14:57:11;;;;;;;;;;;;;;;;;;4948560;28;89492;-71
2023/05/11 14:59:36;;;;;;;;;;;;;;;;;;4948877;28;89631;-70
2023/05/11 15:02:02;;;;;;;;;;;;;;;;;;4926653;28;91809;-70
2023/05/11 15:04:27;;;;;;;;;;;;;;;;;;4932443;28;92749;-68
2023/05/11 15:06:53;;;;;;;;;;;;;;;;;;4949286;28;89784;-66
2023/05/11 15:09:20;;;;;;;;;;;;;;;;;;4953174;28;89507;-67
2023/05/11 15:11:45;;;;;;;;;;;;;;;;;;4949668;28;90175;-70
2023/05/11 15:14:10;;;;;;;;;;;;;;;;;;4949868;28;89516;-70
2023/05/11 15:16:35;;;;;;;;;;;;;;;;;;4950691;28;91109;-70
2023/05/11 15:19:01;;;;;;;;;;;;;;;;;;4949227;28;89266;-71
2023/05/11 15:21:26;;;;;;;;;;;;;;;;;;4948598;28;89825;-70
2023/05/11 15:23:51;;;;;;;;;;;;;;;;;;4947898;28;90990;-65
2023/05/11 15:26:17;;;;;;;;;;;;;;;;;;4951733;28;91626;-69
2023/05/11 15:28:42;;;;;;;;;;;;;;;;;;4948191;28;89867;-71
2023/05/11 15:31:08;;;;;;;;;;;;;;;;;;4948500;28;89865;-66
2023/05/11 15:33:33;;;;;;;;;;;;;;;;;;4963007;28;90378;-67
2023/05/11 15:35:58;;;;;;;;;;;;;;;;;;4948590;28;89527;-71
2023/05/11 15:38:23;;;;;;;;;;;;;;;;;;4949705;28;89244;-67
2023/05/11 15:40:48;;;;;;;;;;;;;;;;;;4947880;28;90227;-73
2023/05/11 15:43:14;;;;;;;;;;;;;;;;;;4924218;28;96201;-72
2023/05/11 15:45:39;;;;;;;;;;;;;;;;;;4925269;28;92381;-72
2023/05/11 15:48:05;;;;;;;;;;;;;;;;;;4950726;28;89773;-69
2023/05/11 15:50:30;;;;;;;;;;;;;;;;;;4953214;28;91270;-66
2023/05/11 15:52:55;;;;;;;;;;;;;;;;;;4953494;28;90347;-70
2023/05/11 15:55:22;;;;;;;;;;;;;;;;;;4949089;28;89522;-67
2023/05/11 15:57:47;;;;;;;;;;;;;;;;;;4947593;28;90317;-66
2023/05/11 16:00:12;;;;;;;;;;;;;;;;;;4928850;28;92643;-67
2023/05/11 16:02:38;;;;;;;;;;;;;;;;;;4948793;28;89794;-67
2023/05/11 16:05:03;;;;;;;;;;;;;;;;;;4950565;28;91685;-67
2023/05/11 16:07:29;;;;;;;;;;;;;;;;;;4949959;28;89543;-67
2023/05/11 16:09:54;;;;;;;;;;;;;;;;;;4928597;28;92388;-71
2023/05/11 16:12:19;;;;;;;;;;;;;;;;;;4944385;28;89499;-71
2023/05/11 16:14:44;;;;;;;;;;;;;;;;;;4945844;28;89732;-72
2023/05/11 16:17:10;;;;;;;;;;;;;;;;;;4949486;28;89300;-68
2023/05/11 16:19:35;;;;;;;;;;;;;;;;;;4948995;28;89057;-67
2023/05/11 16:22:01;;;;;;;;;;;;;;;;;;4951619;28;90990;-67
2023/05/11 16:24:27;;;;;;;;;;;;;;;;;;4948850;28;90548;-70
2023/05/11 16:26:53;;;;;;;;;;;;;;;;;;4950627;28;89181;-66
2023/05/11 16:29:18;;;;;;;;;;;;;;;;;;4951287;28;89621;-66
2023/05/11 16:31:43;;;;;;;;;;;;;;;;;;4945980;28;89095;-70
2023/05/11 16:34:08;;;;;;;;;;;;;;;;;;4946034;28;91025;-68
2023/05/11 16:36:34;;;;;;;;;;;;;;;;;;4948033;28;89826;-74
2023/05/11 16:38:59;;;;;;;;;;;;;;;;;;4944777;28;89571;-69
2023/05/11 16:41:26;;;;;;;;;;;;;;;;;;4944080;28;90578;-69
2023/05/11 16:43:52;;;;;;;;;;;;;;;;;;4946994;28;90376;-73